Time;durP1;ratioP1;P1;durP2;ratioP2;P2;SDS_P1;SDS_P2;PMS_P1;PMS_P2;Temp;Humidity;BMP_temperature;BMP_pressure;BME280_temperature;BME280_humidity;BME280_pressure;Samples;Min_cycle;Max_cycle;Signal;HPM_P1;HPM_P2
2021/12/10 00:00:22;;;;;;;157.13;53.70;;;1.60;99.90;;;;;;5071280;28;20427;-72
2021/12/10 00:02:48;;;;;;;162.93;53.55;;;1.60;99.90;;;;;;4720753;28;10000627;-71
2021/12/10 00:05:18;;;;;;;144.43;50.58;;;2.40;99.90;;;;;;5070752;28;20390;-72
2021/12/10 00:07:45;;;;;;;153.48;52.80;;;1.50;99.90;;;;;;5070041;28;20021;-70
2021/12/10 00:10:16;;;;;;;152.85;50.53;;;1.60;99.90;;;;;;5071538;28;20029;-72
2021/12/10 00:12:50;;;;;;;145.90;50.17;;;1.60;99.90;;;;;;5071345;28;20036;-74
2021/12/10 00:15:18;;;;;;;154.35;52.20;;;1.60;99.90;;;;;;5073234;28;20024;-74
2021/12/10 00:17:44;;;;;;;152.27;52.55;;;3.50;99.90;;;;;;5072917;28;20032;-74
2021/12/10 00:20:11;;;;;;;154.93;52.67;;;1.60;99.90;;;;;;5073186;28;20021;-75
2021/12/10 00:22:42;;;;;;;152.25;50.88;;;1.60;99.90;;;;;;5072474;28;20107;-73
2021/12/10 00:25:17;;;;;;;155.85;52.33;;;1.60;99.90;;;;;;5073235;28;20031;-73
2021/12/10 00:27:44;;;;;;;142.10;50.35;;;1.60;99.90;;;;;;5073382;28;20021;-73
2021/12/10 00:30:24;;;;;;;155.25;50.92;;;1.60;99.90;;;;;;5073011;28;20077;-72
2021/12/10 00:33:02;;;;;;;152.63;51.92;;;1.60;99.90;;;;;;5072845;28;20029;-73
2021/12/10 00:35:30;;;;;;;164.30;52.38;;;1.60;99.90;;;;;;5072663;28;20050;-74
2021/12/10 00:37:57;;;;;;;168.63;51.97;;;1.70;99.90;;;;;;5072951;28;20498;-74
2021/12/10 00:40:24;;;;;;;163.80;53.92;;;1.60;99.90;;;;;;5072958;28;20032;-73
2021/12/10 00:42:50;;;;;;;151.38;52.42;;;1.60;99.90;;;;;;5072495;28;20376;-73
2021/12/10 00:45:17;;;;;;;160.05;51.67;;;1.90;99.90;;;;;;5072991;28;20524;-73
2021/12/10 00:47:44;;;;;;;154.13;51.78;;;1.60;99.90;;;;;;5072744;28;20029;-73
2021/12/10 00:50:16;;;;;;;163.02;52.33;;;1.60;99.90;;;;;;5072441;28;20032;-73
2021/12/10 00:52:43;;;;;;;163.85;53.60;;;1.60;99.90;;;;;;5054534;28;20042;-75
2021/12/10 00:55:10;;;;;;;146.73;50.45;;;1.60;99.90;;;;;;5072767;28;20486;-73
2021/12/10 00:57:36;;;;;;;163.25;53.65;;;1.60;99.90;;;;;;5072634;28;20497;-74
2021/12/10 01:00:10;;;;;;;161.63;51.65;;;1.50;99.90;;;;;;5072586;28;20024;-72
2021/12/10 01:02:36;;;;;;;155.00;51.70;;;1.60;99.90;;;;;;5072003;28;20039;-73
2021/12/10 01:05:02;;;;;;;164.73;54.58;;;1.60;99.90;;;;;;5072429;28;20021;-74
2021/12/10 01:07:32;;;;;;;164.05;53.35;;;1.60;99.90;;;;;;5054098;28;20032;-73
2021/12/10 01:10:02;;;;;;;151.10;51.15;;;1.60;99.90;;;;;;5072559;28;20078;-73
2021/12/10 01:12:39;;;;;;;157.40;53.00;;;1.60;99.90;;;;;;5086751;22;20470;-73
2021/12/10 01:23:55;;;;;;;147.50;51.40;;;1.60;99.90;;;;;;5071663;28;20032;-74
2021/12/10 01:27:10;;;;;;;151.20;53.13;;;1.50;99.90;;;;;;5072378;28;20020;-74
2021/12/10 01:29:28;;;;;;;148.48;51.30;;;1.50;99.90;;;;;;5069069;28;20032;-74
2021/12/10 01:31:54;;;;;;;152.27;51.88;;;1.50;99.90;;;;;;5071910;28;20021;-73
2021/12/10 01:34:20;;;;;;;151.80;52.65;;;1.50;99.90;;;;;;5068080;28;20029;-74
2021/12/10 01:36:46;;;;;;;159.70;52.60;;;1.50;99.90;;;;;;5072038;28;20017;-75
2021/12/10 01:39:16;;;;;;;161.68;53.35;;;1.50;99.90;;;;;;5072023;28;20020;-74
2021/12/10 01:41:43;;;;;;;156.85;52.35;;;1.50;99.90;;;;;;5053695;28;20035;-74
2021/12/10 01:44:16;;;;;;;159.07;53.08;;;1.50;99.90;;;;;;5071776;28;20028;-74
2021/12/10 01:46:44;;;;;;;155.90;54.30;;;1.50;99.90;;;;;;5071830;28;20426;-74
2021/12/10 01:49:12;;;;;;;161.48;53.80;;;1.50;99.90;;;;;;5071906;28;20028;-75
2021/12/10 01:51:39;;;;;;;149.55;52.13;;;1.40;99.90;;;;;;5071618;28;20028;-74
2021/12/10 01:54:13;;;;;;;156.95;51.75;;;1.50;99.90;;;;;;5071421;28;20490;-74
2021/12/10 01:56:40;;;;;;;169.82;53.50;;;1.40;99.90;;;;;;5071819;28;20051;-74
2021/12/10 01:59:09;;;;;;;154.52;51.17;;;1.40;99.90;;;;;;5071778;28;20102;-74
2021/12/10 02:01:41;;;;;;;155.13;51.88;;;1.40;99.90;;;;;;5071757;28;20051;-74
2021/12/10 02:04:09;;;;;;;160.68;52.45;;;1.40;99.90;;;;;;5071615;28;20032;-74
2021/12/10 02:06:35;;;;;;;147.40;49.90;;;1.30;99.90;;;;;;5071525;28;20021;-74
2021/12/10 02:09:03;;;;;;;157.43;52.67;;;1.30;99.90;;;;;;5071952;28;20107;-75
2021/12/10 02:11:28;;;;;;;152.20;53.00;;;1.40;99.90;;;;;;5071627;28;20432;-75
2021/12/10 02:13:54;;;;;;;149.63;52.08;;;1.30;99.90;;;;;;5071635;28;20036;-74
2021/12/10 02:16:20;;;;;;;158.52;54.13;;;3.20;99.90;;;;;;5071727;28;20033;-73
2021/12/10 02:18:47;;;;;;;151.65;51.92;;;1.40;99.90;;;;;;5071706;28;20028;-74
2021/12/10 02:21:17;;;;;;;171.23;51.05;;;1.30;99.90;;;;;;5071587;28;20119;-74
2021/12/10 02:23:48;;;;;;;151.77;53.88;;;1.30;99.90;;;;;;5053334;28;20028;-74
2021/12/10 02:26:15;;;;;;;160.75;53.17;;;1.30;99.90;;;;;;5071430;28;20063;-74
2021/12/10 02:28:41;;;;;;;152.85;53.70;;;1.30;99.90;;;;;;5071529;28;20443;-73
2021/12/10 02:31:08;;;;;;;162.40;52.47;;;1.20;99.90;;;;;;5072901;28;20104;-73
2021/12/10 02:33:34;;;;;;;157.98;52.70;;;1.20;99.90;;;;;;5074996;28;20021;-74
2021/12/10 02:36:01;;;;;;;172.77;54.83;;;1.20;99.90;;;;;;5075424;28;20024;-74
2021/12/10 02:38:26;;;;;;;161.68;53.75;;;1.30;99.90;;;;;;5075880;28;20368;-72
2021/12/10 02:40:54;;;;;;;167.45;53.83;;;1.20;99.90;;;;;;5075341;28;20043;-74
2021/12/10 02:43:22;;;;;;;180.93;54.92;;;1.20;99.90;;;;;;5057046;28;20033;-74
2021/12/10 02:45:52;;;;;;;152.48;52.72;;;1.30;99.90;;;;;;5075267;28;20067;-73
2021/12/10 02:48:18;;;;;;;166.05;54.22;;;1.30;99.90;;;;;;5075080;28;20104;-73
2021/12/10 02:50:44;;;;;;;164.82;53.47;;;1.20;99.90;;;;;;5075013;28;20059;-74
2021/12/10 02:53:14;;;;;;;166.93;56.03;;;1.20;99.90;;;;;;5074639;28;20025;-73
2021/12/10 02:55:41;;;;;;;156.88;51.97;;;1.20;99.90;;;;;;5075357;28;20039;-74
2021/12/10 02:58:10;;;;;;;164.98;52.90;;;1.20;99.90;;;;;;5075004;28;20478;-72
2021/12/10 03:00:48;;;;;;;160.50;52.88;;;1.30;99.90;;;;;;5074885;28;20035;-73
2021/12/10 03:03:14;;;;;;;156.93;52.70;;;1.30;99.90;;;;;;5074175;28;20029;-73
2021/12/10 03:05:40;;;;;;;154.55;52.78;;;1.30;99.90;;;;;;5056828;28;20032;-72
2021/12/10 03:08:05;;;;;;;162.75;52.67;;;1.30;99.90;;;;;;5056872;28;20031;-74
2021/12/10 03:10:33;;;;;;;167.52;55.42;;;1.30;99.90;;;;;;5074775;28;20119;-74
2021/12/10 03:12:59;;;;;;;162.10;51.92;;;1.30;99.90;;;;;;5074306;28;20039;-74
2021/12/10 03:15:26;;;;;;;165.98;53.63;;;1.30;99.90;;;;;;5074740;28;20020;-74
2021/12/10 03:17:53;;;;;;;165.23;53.05;;;1.30;99.90;;;;;;5075711;28;20020;-74
2021/12/10 03:20:22;;;;;;;168.85;52.20;;;1.20;99.90;;;;;;5075611;28;20066;-74
2021/12/10 03:22:48;;;;;;;156.93;52.45;;;1.20;99.90;;;;;;5075219;28;20028;-74
2021/12/10 03:25:16;;;;;;;160.70;52.90;;;1.30;99.90;;;;;;5075234;28;20024;-73
2021/12/10 03:27:42;;;;;;;156.25;52.97;;;1.60;99.90;;;;;;5074951;28;20023;-74
2021/12/10 03:30:11;;;;;;;159.68;53.05;;;1.20;99.90;;;;;;5074648;28;20083;-74
2021/12/10 03:32:39;;;;;;;168.13;55.13;;;1.10;99.90;;;;;;5074424;28;20070;-73
2021/12/10 03:35:13;;;;;;;183.13;56.33;;;1.10;99.90;;;;;;5074705;28;20020;-73
2021/12/10 03:37:41;;;;;;;171.07;52.63;;;1.10;99.90;;;;;;5075199;28;20405;-73
2021/12/10 03:40:10;;;;;;;168.65;57.13;;;1.10;99.90;;;;;;5074757;28;20433;-73
2021/12/10 03:42:38;;;;;;;171.13;55.33;;;1.10;99.90;;;;;;5073313;28;20043;-73
2021/12/10 03:45:05;;;;;;;177.45;56.83;;;1.10;99.90;;;;;;5074267;28;20450;-74
2021/12/10 03:47:31;;;;;;;166.35;55.58;;;1.10;99.90;;;;;;5074486;28;20020;-74
2021/12/10 03:49:56;;;;;;;174.98;54.63;;;1.10;99.90;;;;;;5074374;28;20648;-73
2021/12/10 03:52:22;;;;;;;177.75;57.63;;;1.20;99.90;;;;;;5074230;28;20100;-74
2021/12/10 03:54:47;;;;;;;155.85;51.03;;;1.20;99.90;;;;;;5056491;28;20406;-74
2021/12/10 03:57:13;;;;;;;169.80;52.70;;;1.10;99.90;;;;;;5056052;28;20054;-74
2021/12/10 03:59:39;;;;;;;182.82;57.15;;;1.20;99.90;;;;;;5074031;28;20039;-74
2021/12/10 04:02:08;;;;;;;173.10;56.67;;;1.20;99.90;;;;;;5073578;28;20031;-74
2021/12/10 04:04:46;;;;;;;180.05;56.72;;;1.20;99.90;;;;;;5073786;28;20021;-74
2021/12/10 04:07:22;;;;;;;167.80;51.55;;;1.20;99.90;;;;;;5073778;28;20027;-74
2021/12/10 04:09:48;;;;;;;173.85;55.47;;;1.30;99.90;;;;;;5073689;28;20026;-73
2021/12/10 04:12:15;;;;;;;173.20;55.83;;;1.20;99.90;;;;;;5072814;28;20462;-74
2021/12/10 04:14:42;;;;;;;169.55;54.58;;;1.30;99.90;;;;;;5073291;28;20114;-74
2021/12/10 04:17:08;;;;;;;168.55;54.83;;;1.30;99.90;;;;;;5073337;28;20120;-73
2021/12/10 04:19:37;;;;;;;177.73;55.20;;;1.30;99.90;;;;;;5073147;28;20025;-74
2021/12/10 04:22:05;;;;;;;175.68;55.17;;;1.30;99.90;;;;;;5072833;28;20032;-73
2021/12/10 04:24:35;;;;;;;155.80;55.83;;;1.40;99.90;;;;;;5072817;28;20141;-73
2021/12/10 04:27:03;;;;;;;189.50;56.55;;;1.40;99.90;;;;;;5073038;28;20024;-74
2021/12/10 04:29:30;;;;;;;178.18;58.72;;;1.40;99.90;;;;;;5072926;28;20024;-73
2021/12/10 04:31:57;;;;;;;165.88;54.55;;;1.40;99.90;;;;;;5072644;28;20021;-73
2021/12/10 04:34:24;;;;;;;168.00;54.95;;;1.40;99.90;;;;;;5073172;28;20017;-74
2021/12/10 04:36:51;;;;;;;173.88;55.55;;;1.40;99.90;;;;;;5073473;28;20044;-74
2021/12/10 04:39:17;;;;;;;169.45;55.22;;;1.40;99.90;;;;;;5072482;28;20534;-74
2021/12/10 04:41:43;;;;;;;169.88;56.28;;;1.40;99.90;;;;;;5072433;28;20063;-74
2021/12/10 04:44:09;;;;;;;166.55;55.13;;;1.40;99.90;;;;;;5072707;28;20067;-74
2021/12/10 04:46:35;;;;;;;163.57;56.42;;;1.40;99.90;;;;;;5072766;28;20017;-74
2021/12/10 04:49:05;;;;;;;159.60;52.20;;;1.50;99.90;;;;;;5072805;28;20051;-74
2021/12/10 04:51:36;;;;;;;171.00;56.33;;;1.50;99.90;;;;;;5072587;28;20418;-74
2021/12/10 04:54:03;;;;;;;161.95;53.40;;;1.50;99.90;;;;;;5072240;28;20058;-74
2021/12/10 04:56:29;;;;;;;168.85;55.00;;;1.50;99.90;;;;;;5072403;28;20059;-72
2021/12/10 04:58:55;;;;;;;178.57;57.70;;;1.50;99.90;;;;;;5072775;28;20494;-74
2021/12/10 05:01:21;;;;;;;170.35;56.75;;;1.50;99.90;;;;;;5072365;28;20490;-74
2021/12/10 05:03:47;;;;;;;165.20;54.35;;;1.50;99.90;;;;;;5073139;28;20513;-74
2021/12/10 05:06:12;;;;;;;171.32;53.80;;;1.50;99.90;;;;;;5073724;28;20024;-73
2021/12/10 05:08:39;;;;;;;161.57;53.47;;;1.50;99.90;;;;;;5075064;28;20043;-73
2021/12/10 05:11:08;;;;;;;179.13;58.50;;;1.60;99.90;;;;;;5073879;28;20021;-74
2021/12/10 05:13:35;;;;;;;181.00;56.47;;;1.60;99.90;;;;;;5072397;28;20045;-72
2021/12/10 05:16:02;;;;;;;171.32;57.00;;;1.60;99.90;;;;;;5072569;28;20029;-72
2021/12/10 05:18:37;;;;;;;169.80;54.92;;;1.60;99.90;;;;;;5072882;28;20016;-72
2021/12/10 05:21:04;;;;;;;;;;;1.60;99.90;;;;;;5072732;28;20028;-72
2021/12/10 05:23:29;;;;;;;162.18;54.22;;;1.60;99.90;;;;;;5072052;28;19916;-72
2021/12/10 05:25:55;;;;;;;169.88;56.20;;;1.60;99.90;;;;;;5072549;28;20394;-74
2021/12/10 05:28:21;;;;;;;179.25;56.05;;;1.60;99.90;;;;;;5072577;28;20482;-73
2021/12/10 05:30:47;;;;;;;166.63;55.15;;;1.60;99.90;;;;;;5072495;28;20025;-72
2021/12/10 05:33:17;;;;;;;184.27;58.38;;;1.60;99.90;;;;;;5053874;28;20046;-71
2021/12/10 05:35:45;;;;;;;165.88;54.15;;;1.60;99.90;;;;;;5071873;28;20021;-73
2021/12/10 05:38:10;;;;;;;174.05;55.30;;;1.50;99.90;;;;;;5072451;28;20028;-74
2021/12/10 05:40:36;;;;;;;171.05;56.85;;;1.50;99.90;;;;;;5071992;28;20047;-73
2021/12/10 05:43:02;;;;;;;175.85;56.42;;;1.60;99.90;;;;;;5071468;28;20118;-73
2021/12/10 05:45:27;;;;;;;193.98;56.75;;;1.60;99.90;;;;;;5072024;28;20013;-72
2021/12/10 05:47:53;;;;;;;172.80;55.63;;;1.60;99.90;;;;;;5071896;28;20453;-75
2021/12/10 05:50:23;;;;;;;188.80;61.55;;;1.60;99.90;;;;;;5071921;28;20025;-74
2021/12/10 05:52:49;;;;;;;179.25;56.20;;;1.60;99.90;;;;;;5071881;28;20393;-73
2021/12/10 05:55:15;;;;;;;173.70;58.00;;;1.60;99.90;;;;;;5072015;28;20020;-75
2021/12/10 05:57:41;;;;;;;176.40;57.53;;;1.60;99.90;;;;;;5071893;28;20040;-74
2021/12/10 06:00:14;;;;;;;176.13;59.58;;;1.60;99.90;;;;;;5072155;28;20089;-76
2021/12/10 06:02:40;;;;;;;171.00;55.60;;;1.60;99.90;;;;;;5052939;28;20086;-75
2021/12/10 06:05:07;;;;;;;181.13;56.42;;;1.70;99.90;;;;;;5071469;28;20021;-75
2021/12/10 06:07:33;;;;;;;178.98;56.33;;;1.70;99.90;;;;;;5071981;28;20039;-75
2021/12/10 06:09:59;;;;;;;166.90;56.15;;;1.60;99.90;;;;;;5072488;28;20398;-73
2021/12/10 06:12:25;;;;;;;187.63;58.05;;;1.60;99.90;;;;;;5071315;28;20177;-74
2021/12/10 06:14:50;;;;;;;178.82;60.00;;;1.60;99.90;;;;;;5071798;28;20040;-73
2021/12/10 06:17:17;;;;;;;175.45;57.20;;;1.60;99.90;;;;;;5071716;28;20056;-74
2021/12/10 06:19:43;;;;;;;186.93;56.22;;;1.70;99.90;;;;;;5072404;28;20266;-74
2021/12/10 06:22:10;;;;;;;184.40;57.38;;;1.70;99.90;;;;;;5071595;28;20253;-71
2021/12/10 06:24:35;;;;;;;197.05;60.45;;;1.80;99.90;;;;;;5072889;28;20037;-73
2021/12/10 06:27:01;;;;;;;179.80;56.38;;;1.90;99.90;;;;;;5072730;28;20474;-73
2021/12/10 06:29:27;;;;;;;175.98;59.72;;;2.10;99.90;;;;;;5071394;28;20039;-74
2021/12/10 06:31:54;;;;;;;171.95;55.60;;;1.90;99.90;;;;;;5070981;28;20021;-76
2021/12/10 06:34:20;;;;;;;177.23;57.50;;;1.80;99.90;;;;;;5071244;28;20032;-74
2021/12/10 06:36:48;;;;;;;179.13;60.50;;;1.90;99.90;;;;;;5071830;28;20329;-72
2021/12/10 06:39:19;;;;;;;183.02;61.15;;;1.90;99.90;;;;;;5072168;28;20436;-73
2021/12/10 06:41:52;;;;;;;194.75;63.22;;;1.90;99.90;;;;;;5071435;28;20430;-71
2021/12/10 06:44:19;;;;;;;207.03;62.87;;;2.00;99.90;;;;;;4365109;28;10000709;-75
2021/12/10 06:46:45;;;;;;;185.88;59.25;;;2.00;99.90;;;;;;5048847;28;20427;-74
2021/12/10 06:49:12;;;;;;;203.35;63.30;;;2.00;99.90;;;;;;5049749;28;20025;-74
2021/12/10 06:51:37;;;;;;;200.73;60.15;;;2.00;99.90;;;;;;5049401;28;20028;-74
2021/12/10 06:54:03;;;;;;;198.10;60.92;;;2.00;99.90;;;;;;5049586;28;20382;-76
2021/12/10 06:56:31;;;;;;;182.15;60.58;;;1.90;99.90;;;;;;5058809;28;20402;-73
2021/12/10 06:58:59;;;;;;;188.30;58.50;;;1.90;99.90;;;;;;5069432;28;20035;-73
2021/12/10 07:01:28;;;;;;;187.85;59.30;;;1.90;99.90;;;;;;5068327;28;20027;-74
2021/12/10 07:03:57;;;;;;;192.30;63.35;;;1.80;99.90;;;;;;5068648;28;20065;-73
2021/12/10 07:06:24;;;;;;;194.05;61.45;;;1.80;99.90;;;;;;5069790;28;20035;-73
2021/12/10 07:08:50;;;;;;;199.35;63.55;;;1.70;99.90;;;;;;5069644;28;20096;-75
2021/12/10 07:11:19;;;;;;;199.75;63.10;;;1.70;99.90;;;;;;5051640;28;20035;-76
2021/12/10 07:13:49;;;;;;;200.35;64.70;;;1.70;99.90;;;;;;5069964;28;20139;-75
2021/12/10 07:16:15;;;;;;;202.18;62.38;;;1.70;99.90;;;;;;5069818;28;20058;-75
2021/12/10 07:18:41;;;;;;;193.73;63.00;;;1.60;99.90;;;;;;5071549;28;20024;-75
2021/12/10 07:21:08;;;;;;;200.52;60.92;;;1.60;99.90;;;;;;5073081;28;20124;-74
2021/12/10 07:23:36;;;;;;;213.43;65.38;;;1.60;99.90;;;;;;5072825;28;20036;-75
2021/12/10 07:26:02;;;;;;;198.20;62.47;;;1.70;99.90;;;;;;5072871;28;20016;-75
2021/12/10 07:28:29;;;;;;;216.00;66.03;;;1.70;99.90;;;;;;5072739;28;20042;-76
2021/12/10 07:30:55;;;;;;;208.25;64.72;;;1.60;99.90;;;;;;5072045;28;20108;-75
2021/12/10 07:33:21;;;;;;;187.32;61.20;;;1.70;99.90;;;;;;5071811;28;20112;-73
2021/12/10 07:35:47;;;;;;;192.25;59.77;;;1.70;99.90;;;;;;4718218;28;10001164;-75
2021/12/10 07:38:13;;;;;;;203.13;65.88;;;1.70;99.90;;;;;;5060917;28;20016;-75
2021/12/10 07:40:40;;;;;;;193.48;64.85;;;1.70;99.90;;;;;;5071498;28;20033;-74
2021/12/10 07:43:06;;;;;;;188.32;61.53;;;1.70;99.90;;;;;;5068857;28;20031;-72
2021/12/10 07:45:33;;;;;;;187.30;63.15;;;1.70;99.90;;;;;;5064432;28;20025;-74
2021/12/10 07:48:03;;;;;;;199.68;62.75;;;1.80;99.90;;;;;;5069481;28;20032;-75
2021/12/10 07:50:34;;;;;;;195.07;62.97;;;1.80;99.90;;;;;;5070307;28;20020;-73
2021/12/10 07:53:01;;;;;;;196.40;60.63;;;1.80;99.90;;;;;;5051198;28;20028;-73
2021/12/10 07:55:29;;;;;;;197.30;62.13;;;1.90;99.90;;;;;;5068923;28;20462;-73
2021/12/10 07:57:55;;;;;;;185.45;60.85;;;1.90;99.90;;;;;;5070183;28;20052;-74
2021/12/10 08:00:25;;;;;;;194.25;61.17;;;2.00;99.90;;;;;;5065788;28;20028;-75
2021/12/10 08:02:51;;;;;;;202.15;61.35;;;2.00;99.90;;;;;;5056395;28;20044;-73
2021/12/10 08:05:17;;;;;;;193.90;59.65;;;2.00;99.90;;;;;;5051589;28;20032;-74
2021/12/10 08:07:43;;;;;;;183.27;59.13;;;2.00;99.90;;;;;;5050975;28;20355;-73
2021/12/10 08:10:11;;;;;;;182.18;60.10;;;2.00;99.90;;;;;;5068809;28;20012;-75
2021/12/10 08:12:37;;;;;;;192.98;62.72;;;2.00;99.90;;;;;;5069560;28;20036;-75
2021/12/10 08:15:04;;;;;;;194.27;63.80;;;2.00;99.90;;;;;;5068522;28;20029;-74
2021/12/10 08:17:30;;;;;;;189.85;61.03;;;2.00;99.90;;;;;;5068682;28;20032;-74
2021/12/10 08:19:55;;;;;;;196.73;61.55;;;2.00;99.90;;;;;;5051346;28;20452;-75
2021/12/10 08:22:21;;;;;;;175.70;58.85;;;2.00;99.90;;;;;;5055775;28;20035;-72
2021/12/10 08:24:47;;;;;;;184.65;59.22;;;2.10;99.90;;;;;;5069205;28;20016;-77
2021/12/10 08:27:13;;;;;;;187.20;58.78;;;1.80;99.90;;;;;;5068577;28;20023;-75
2021/12/10 08:29:42;;;;;;;183.73;59.63;;;2.30;99.90;;;;;;5067992;28;20438;-73
2021/12/10 08:32:12;;;;;;;177.02;57.28;;;2.30;99.90;;;;;;5051660;28;20024;-75
2021/12/10 08:34:38;;;;;;;180.38;58.95;;;2.40;99.90;;;;;;5056114;28;20028;-75
2021/12/10 08:37:03;;;;;;;183.15;59.85;;;2.40;99.90;;;;;;5067973;28;20035;-73
2021/12/10 08:39:29;;;;;;;171.18;56.42;;;3.30;99.90;;;;;;5049906;28;20055;-77
2021/12/10 08:41:57;;;;;;;178.88;60.55;;;2.50;99.90;;;;;;5066167;28;20028;-74
2021/12/10 08:44:23;;;;;;;188.38;61.78;;;2.60;99.90;;;;;;5066637;28;20502;-75
2021/12/10 08:46:49;;;;;;;186.32;60.97;;;2.70;99.90;;;;;;5068487;28;20501;-73
2021/12/10 08:49:15;;;;;;;191.40;63.25;;;2.60;99.90;;;;;;5067350;28;20115;-75
2021/12/10 08:51:45;;;;;;;183.20;61.28;;;2.70;99.90;;;;;;5066067;28;20033;-75
2021/12/10 08:54:12;;;;;;;177.65;58.00;;;2.80;99.90;;;;;;5063507;28;20067;-76
2021/12/10 08:56:38;;;;;;;174.85;58.20;;;2.80;99.90;;;;;;5049003;28;20031;-74
2021/12/10 08:59:07;;;;;;;178.25;58.53;;;2.90;99.90;;;;;;5049952;28;20036;-76
2021/12/10 09:01:36;;;;;;;189.15;57.47;;;2.90;99.90;;;;;;5066131;28;20432;-75
2021/12/10 09:04:04;;;;;;;169.95;58.20;;;2.80;99.90;;;;;;5065530;28;20024;-75
2021/12/10 09:06:33;;;;;;;176.63;59.13;;;2.90;99.90;;;;;;5049331;28;20067;-75
2021/12/10 09:09:00;;;;;;;175.00;58.55;;;2.90;99.90;;;;;;5067362;28;20021;-74
2021/12/10 09:11:26;;;;;;;180.18;59.17;;;3.00;99.90;;;;;;5067593;28;20020;-74
2021/12/10 09:13:52;;;;;;;188.38;61.85;;;3.00;99.90;;;;;;5066689;28;20032;-74
2021/12/10 09:16:24;;;;;;;169.00;58.03;;;3.10;99.90;;;;;;5061925;28;20025;-73
2021/12/10 09:18:53;;;;;;;180.32;59.10;;;3.20;99.90;;;;;;5068372;28;20374;-74
2021/12/10 09:21:20;;;;;;;169.43;56.40;;;3.20;99.90;;;;;;5071187;28;20082;-72
2021/12/10 09:23:46;;;;;;;173.43;58.40;;;3.20;99.90;;;;;;5071133;28;20024;-75
2021/12/10 09:26:18;;;;;;;185.73;58.33;;;3.20;99.90;;;;;;5058868;28;20375;-74
2021/12/10 09:28:45;;;;;;;181.35;57.35;;;3.10;99.90;;;;;;5071428;28;20028;-74
2021/12/10 09:31:12;;;;;;;177.25;58.85;;;3.10;99.90;;;;;;5072499;28;20016;-73
2021/12/10 09:33:38;;;;;;;191.90;59.13;;;3.20;99.90;;;;;;5070108;28;20119;-74
2021/12/10 09:36:05;;;;;;;177.48;58.72;;;3.20;99.90;;;;;;5072211;28;20025;-75
2021/12/10 09:38:32;;;;;;;166.13;57.67;;;3.30;99.90;;;;;;5071359;28;20020;-74
2021/12/10 09:41:02;;;;;;;195.57;60.72;;;3.30;99.90;;;;;;5062631;28;20556;-75
2021/12/10 09:43:29;;;;;;;185.35;60.70;;;2.60;99.90;;;;;;5069912;28;20029;-74
2021/12/10 09:45:55;;;;;;;183.88;60.63;;;3.30;99.90;;;;;;5070287;28;20020;-76
2021/12/10 09:48:23;;;;;;;183.38;59.00;;;3.40;99.90;;;;;;5067409;28;20382;-75
2021/12/10 09:50:58;;;;;;;162.23;56.65;;;3.40;99.90;;;;;;5070683;28;20099;-77
2021/12/10 09:53:25;;;;;;;;;;;3.40;99.90;;;;;;5071265;28;20066;-75
2021/12/10 09:55:51;;;;;;;174.43;56.40;;;3.40;99.90;;;;;;5070856;28;19904;-74
2021/12/10 09:58:18;;;;;;;150.70;55.45;;;3.30;99.90;;;;;;5052878;28;20125;-75
2021/12/10 10:01:02;;;;;;;167.88;56.70;;;3.30;99.90;;;;;;5070580;28;20107;-73
2021/12/10 10:03:32;;;;;;;156.32;56.70;;;3.30;99.90;;;;;;5071498;28;20020;-74
2021/12/10 10:05:59;;;;;;;164.68;54.50;;;3.30;99.90;;;;;;5069398;28;20023;-76
2021/12/10 10:08:26;;;;;;;175.18;58.63;;;3.40;99.90;;;;;;5073109;28;20027;-75
2021/12/10 10:10:57;;;;;;;163.73;57.22;;;3.40;99.90;;;;;;5055870;28;20017;-76
2021/12/10 10:13:31;;;;;;;158.60;52.83;;;3.50;99.90;;;;;;5072576;28;20506;-73
2021/12/10 10:15:59;;;;;;;155.98;55.03;;;3.50;99.90;;;;;;5051190;28;20029;-75
2021/12/10 10:18:27;;;;;;;160.73;53.45;;;3.60;99.90;;;;;;5070162;28;20389;-74
2021/12/10 10:20:59;;;;;;;144.77;52.13;;;3.70;99.90;;;;;;5069412;28;20066;-73
2021/12/10 10:23:26;;;;;;;164.63;54.75;;;3.80;99.90;;;;;;5067776;28;20052;-74
2021/12/10 10:25:57;;;;;;;158.38;52.97;;;3.80;99.90;;;;;;5069379;28;20021;-74
2021/12/10 10:28:23;;;;;;;159.20;55.25;;;4.10;99.90;;;;;;5066839;28;20025;-77
2021/12/10 10:31:16;;;;;;;158.45;54.50;;;3.90;99.90;;;;;;5069225;28;20055;-73
2021/12/10 10:33:42;;;;;;;158.02;55.60;;;3.80;99.90;;;;;;5067037;28;20025;-73
2021/12/10 10:36:19;;;;;;;157.52;53.70;;;3.90;99.90;;;;;;5069702;28;20024;-72
2021/12/10 10:38:54;;;;;;;158.88;53.13;;;3.90;99.90;;;;;;5061624;28;20039;-73
2021/12/10 10:41:24;;;;;;;149.38;53.58;;;3.90;99.90;;;;;;5053675;28;20043;-76
2021/12/10 10:43:49;;;;;;;144.50;52.88;;;3.90;99.90;;;;;;5070352;28;20490;-76
2021/12/10 10:46:15;;;;;;;149.35;54.58;;;3.90;99.90;;;;;;5073075;28;20028;-75
2021/12/10 10:48:43;;;;;;;140.20;51.40;;;3.90;99.90;;;;;;5053842;28;20060;-73
2021/12/10 10:51:17;;;;;;;157.05;53.47;;;3.90;99.90;;;;;;5071086;28;20417;-73
2021/12/10 10:53:47;;;;;;;148.32;52.00;;;4.00;99.90;;;;;;5074418;28;20025;-75
2021/12/10 10:56:31;;;;;;;136.70;49.42;;;4.00;99.90;;;;;;5074429;28;20447;-74
2021/12/10 10:59:03;;;;;;;132.80;49.33;;;4.00;99.90;;;;;;5075013;28;20062;-74
2021/12/10 11:01:41;;;;;;;132.95;49.97;;;4.00;99.90;;;;;;5074136;28;20462;-73
2021/12/10 11:04:29;;;;;;;153.10;49.60;;;3.90;99.90;;;;;;5074950;28;20024;-73
2021/12/10 11:07:18;;;;;;;161.20;54.83;;;4.00;99.90;;;;;;5075454;28;20021;-73
2021/12/10 11:09:54;;;;;;;155.10;51.42;;;4.70;99.90;;;;;;5074334;28;20020;-73
2021/12/10 11:12:28;;;;;;;142.68;48.10;;;3.90;99.90;;;;;;5073785;28;20043;-73
2021/12/10 11:14:55;;;;;;;158.73;51.50;;;3.90;99.90;;;;;;5073447;28;20022;-75
2021/12/10 11:17:29;;;;;;;158.10;53.65;;;3.90;99.90;;;;;;5072689;28;20123;-74
2021/12/10 11:20:07;;;;;;;153.65;51.92;;;3.80;99.90;;;;;;5067440;28;20025;-74
2021/12/10 11:22:34;;;;;;;154.57;53.13;;;3.70;99.90;;;;;;5065809;28;20037;-73
2021/12/10 11:25:14;;;;;;;171.77;52.45;;;3.70;99.90;;;;;;5074676;28;20037;-73
2021/12/10 11:27:41;;;;;;;162.25;52.20;;;3.70;99.90;;;;;;5067145;28;20024;-75
2021/12/10 11:30:15;;;;;;;171.73;55.38;;;3.70;99.90;;;;;;5074723;28;20031;-74
2021/12/10 11:33:00;;;;;;;168.17;54.33;;;3.60;99.90;;;;;;5054245;28;20029;-74
2021/12/10 11:35:28;;;;;;;;;;;3.70;99.90;;;;;;5073290;28;20270;-74
2021/12/10 11:38:09;;;;;;;190.32;52.95;;;3.60;99.90;;;;;;5054541;28;19964;-73
2021/12/10 11:40:41;;;;;;;160.88;53.35;;;3.60;99.90;;;;;;5078146;28;20017;-75
2021/12/10 11:43:31;;;;;;;162.13;53.65;;;3.60;99.90;;;;;;5072723;28;20021;-74
2021/12/10 11:46:43;;;;;;;178.00;54.35;;;3.60;99.90;;;;;;5053665;28;20021;-76
2021/12/10 11:49:16;;;;;;;167.57;53.95;;;3.60;99.90;;;;;;5028237;28;20491;-74
2021/12/10 11:51:49;;;;;;;171.13;51.88;;;3.60;99.90;;;;;;5057892;28;20045;-74
2021/12/10 11:54:17;;;;;;;143.80;49.97;;;3.60;99.90;;;;;;5065947;28;20216;-74
2021/12/10 11:57:06;;;;;;;141.68;47.47;;;3.60;99.90;;;;;;5071013;28;20032;-74
2021/12/10 11:59:48;;;;;;;146.02;47.47;;;3.60;99.90;;;;;;5069247;28;20064;-73
2021/12/10 12:02:17;;;;;;;139.98;46.95;;;3.60;99.90;;;;;;5048763;28;20063;-73
2021/12/10 12:04:48;;;;;;;132.73;44.45;;;3.60;99.90;;;;;;5065251;28;20095;-74
2021/12/10 12:07:38;;;;;;;133.45;44.10;;;3.50;99.90;;;;;;5071173;28;20435;-74
2021/12/10 12:10:30;;;;;;;130.35;44.30;;;3.40;99.90;;;;;;5049727;28;20086;-73
2021/12/10 12:13:54;;;;;;;145.65;48.42;;;3.50;99.90;;;;;;5072753;28;20036;-74
2021/12/10 12:16:18;;;;;;;141.45;47.20;;;3.50;99.90;;;;;;5062389;28;20413;-76
2021/12/10 12:18:47;;;;;;;153.95;50.90;;;3.50;99.90;;;;;;5070447;28;20101;-74
2021/12/10 12:27:06;;;;;;;168.88;53.45;;;3.50;99.90;;;;;;5071476;28;20028;-74
2021/12/10 12:29:37;;;;;;;158.00;48.03;;;3.50;99.90;;;;;;5066815;28;20017;-74
2021/12/10 12:32:09;;;;;;;158.88;48.80;;;3.50;99.90;;;;;;5072326;28;20024;-75
2021/12/10 12:34:35;;;;;;;148.45;46.95;;;3.40;99.90;;;;;;5073866;28;20135;-77
2021/12/10 12:37:06;;;;;;;140.63;45.70;;;3.50;99.90;;;;;;5073091;28;20052;-75
2021/12/10 12:39:40;;;;;;;141.57;45.83;;;3.50;99.90;;;;;;5072166;28;20023;-74
2021/12/10 12:42:29;;;;;;;152.18;46.05;;;3.50;99.90;;;;;;5070786;28;20020;-73
2021/12/10 12:44:58;;;;;;;156.40;49.88;;;3.50;99.90;;;;;;5072849;28;20038;-74
2021/12/10 12:47:28;;;;;;;142.02;43.33;;;3.50;99.90;;;;;;5072175;28;20502;-74
2021/12/10 12:50:18;;;;;;;139.57;44.45;;;3.50;99.90;;;;;;5072074;28;20514;-73
2021/12/10 12:52:53;;;;;;;144.60;43.25;;;3.40;99.90;;;;;;5067463;28;20328;-74